sensor_id;sensor_type;location;lat;lon;timestamp;P1;durP1;ratioP1;P2;durP2;ratioP2
13981;SDS011;7065;50.880;5.502;2024-03-02T00:00:11;3.35;;;1.20;;
13981;SDS011;7065;50.880;5.502;2024-03-02T00:02:44;2.42;;;1.20;;
13981;SDS011;7065;50.880;5.502;2024-03-02T00:05:11;1.73;;;1.10;;
13981;SDS011;7065;50.880;5.502;2024-03-02T00:07:41;3.00;;;1.20;;
13981;SDS011;7065;50.880;5.502;2024-03-02T00:10:10;4.55;;;1.45;;
13981;SDS011;7065;50.880;5.502;2024-03-02T00:12:39;5.43;;;1.20;;
13981;SDS011;7065;50.880;5.502;2024-03-02T00:15:06;1.75;;;1.10;;
13981;SDS011;7065;50.880;5.502;2024-03-02T00:17:54;3.30;;;1.10;;
13981;SDS011;7065;50.880;5.502;2024-03-02T00:20:23;2.60;;;1.30;;
13981;SDS011;7065;50.880;5.502;2024-03-02T00:23:01;1.70;;;1.30;;
13981;SDS011;7065;50.880;5.502;2024-03-02T00:25:38;3.00;;;1.10;;
13981;SDS011;7065;50.880;5.502;2024-03-02T00:28:05;1.08;;;0.98;;
13981;SDS011;7065;50.880;5.502;2024-03-02T00:30:42;1.85;;;1.00;;
13981;SDS011;7065;50.880;5.502;2024-03-02T00:33:21;3.15;;;0.68;;
13981;SDS011;7065;50.880;5.502;2024-03-02T00:35:47;1.30;;;0.70;;
13981;SDS011;7065;50.880;5.502;2024-03-02T00:38:14;0.88;;;0.45;;
13981;SDS011;7065;50.880;5.502;2024-03-02T00:40:41;0.75;;;0.60;;
13981;SDS011;7065;50.880;5.502;2024-03-02T00:43:11;0.85;;;0.60;;
13981;SDS011;7065;50.880;5.502;2024-03-02T00:46:00;0.35;;;0.35;;
13981;SDS011;7065;50.880;5.502;2024-03-02T00:48:26;0.80;;;0.50;;
13981;SDS011;7065;50.880;5.502;2024-03-02T00:50:52;1.55;;;0.50;;
13981;SDS011;7065;50.880;5.502;2024-03-02T00:53:18;0.47;;;0.47;;
13981;SDS011;7065;50.880;5.502;2024-03-02T00:55:49;2.15;;;0.60;;
13981;SDS011;7065;50.880;5.502;2024-03-02T00:58:15;0.55;;;0.40;;
13981;SDS011;7065;50.880;5.502;2024-03-02T01:00:41;0.75;;;0.52;;
13981;SDS011;7065;50.880;5.502;2024-03-02T01:03:06;1.48;;;0.73;;
13981;SDS011;7065;50.880;5.502;2024-03-02T01:05:32;1.90;;;0.60;;
13981;SDS011;7065;50.880;5.502;2024-03-02T01:07:59;0.73;;;0.50;;
13981;SDS011;7065;50.880;5.502;2024-03-02T01:10:24;0.50;;;0.50;;
13981;SDS011;7065;50.880;5.502;2024-03-02T01:12:51;1.15;;;0.60;;
13981;SDS011;7065;50.880;5.502;2024-03-02T01:15:16;0.52;;;0.50;;
13981;SDS011;7065;50.880;5.502;2024-03-02T01:17:42;1.70;;;0.65;;
13981;SDS011;7065;50.880;5.502;2024-03-02T01:20:08;0.43;;;0.43;;
13981;SDS011;7065;50.880;5.502;2024-03-02T01:22:34;1.48;;;0.60;;
13981;SDS011;7065;50.880;5.502;2024-03-02T01:25:01;0.68;;;0.50;;
13981;SDS011;7065;50.880;5.502;2024-03-02T01:27:27;1.25;;;0.70;;
13981;SDS011;7065;50.880;5.502;2024-03-02T01:29:53;0.65;;;0.50;;
13981;SDS011;7065;50.880;5.502;2024-03-02T01:32:19;1.40;;;0.55;;
13981;SDS011;7065;50.880;5.502;2024-03-02T01:34:45;0.98;;;0.40;;
13981;SDS011;7065;50.880;5.502;2024-03-02T01:37:11;0.50;;;0.47;;
13981;SDS011;7065;50.880;5.502;2024-03-02T01:39:36;0.55;;;0.50;;
13981;SDS011;7065;50.880;5.502;2024-03-02T01:42:02;0.40;;;0.40;;
13981;SDS011;7065;50.880;5.502;2024-03-02T01:44:28;0.90;;;0.50;;
13981;SDS011;7065;50.880;5.502;2024-03-02T01:46:54;1.13;;;0.40;;
13981;SDS011;7065;50.880;5.502;2024-03-02T01:49:19;0.80;;;0.60;;
13981;SDS011;7065;50.880;5.502;2024-03-02T01:51:45;0.80;;;0.50;;
13981;SDS011;7065;50.880;5.502;2024-03-02T01:54:11;0.80;;;0.65;;
13981;SDS011;7065;50.880;5.502;2024-03-02T01:56:37;0.95;;;0.60;;
13981;SDS011;7065;50.880;5.502;2024-03-02T01:59:02;0.70;;;0.70;;
13981;SDS011;7065;50.880;5.502;2024-03-02T02:01:28;0.60;;;0.50;;
13981;SDS011;7065;50.880;5.502;2024-03-02T02:03:54;0.50;;;0.40;;
13981;SDS011;7065;50.880;5.502;2024-03-02T02:06:21;1.70;;;0.50;;
13981;SDS011;7065;50.880;5.502;2024-03-02T02:08:46;0.50;;;0.45;;
13981;SDS011;7065;50.880;5.502;2024-03-02T02:11:16;0.82;;;0.50;;
13981;SDS011;7065;50.880;5.502;2024-03-02T02:13:41;0.45;;;0.45;;
13981;SDS011;7065;50.880;5.502;2024-03-02T02:16:07;1.10;;;0.50;;
13981;SDS011;7065;50.880;5.502;2024-03-02T02:18:33;1.63;;;0.55;;
13981;SDS011;7065;50.880;5.502;2024-03-02T02:21:00;1.48;;;0.50;;
13981;SDS011;7065;50.880;5.502;2024-03-02T02:23:27;0.93;;;0.50;;
13981;SDS011;7065;50.880;5.502;2024-03-02T02:25:52;1.08;;;0.50;;
13981;SDS011;7065;50.880;5.502;2024-03-02T02:28:18;0.57;;;0.40;;
13981;SDS011;7065;50.880;5.502;2024-03-02T02:30:44;1.60;;;0.50;;
13981;SDS011;7065;50.880;5.502;2024-03-02T02:33:09;1.27;;;0.47;;
13981;SDS011;7065;50.880;5.502;2024-03-02T02:35:35;0.65;;;0.50;;
13981;SDS011;7065;50.880;5.502;2024-03-02T02:38:01;0.40;;;0.40;;
13981;SDS011;7065;50.880;5.502;2024-03-02T02:40:28;0.98;;;0.40;;
13981;SDS011;7065;50.880;5.502;2024-03-02T02:42:57;1.48;;;0.55;;
13981;SDS011;7065;50.880;5.502;2024-03-02T02:45:24;0.93;;;0.30;;
13981;SDS011;7065;50.880;5.502;2024-03-02T02:47:50;0.50;;;0.50;;
13981;SDS011;7065;50.880;5.502;2024-03-02T02:50:16;0.80;;;0.40;;
13981;SDS011;7065;50.880;5.502;2024-03-02T02:52:42;1.73;;;0.50;;
13981;SDS011;7065;50.880;5.502;2024-03-02T02:55:09;0.68;;;0.60;;
13981;SDS011;7065;50.880;5.502;2024-03-02T02:57:35;1.65;;;0.43;;
13981;SDS011;7065;50.880;5.502;2024-03-02T03:00:05;1.48;;;0.50;;
13981;SDS011;7065;50.880;5.502;2024-03-02T03:02:36;0.30;;;0.30;;
13981;SDS011;7065;50.880;5.502;2024-03-02T03:05:02;1.10;;;0.55;;
13981;SDS011;7065;50.880;5.502;2024-03-02T03:07:29;1.35;;;0.50;;
13981;SDS011;7065;50.880;5.502;2024-03-02T03:09:54;0.40;;;0.40;;
13981;SDS011;7065;50.880;5.502;2024-03-02T03:12:20;0.40;;;0.40;;
13981;SDS011;7065;50.880;5.502;2024-03-02T03:14:46;0.70;;;0.50;;
13981;SDS011;7065;50.880;5.502;2024-03-02T03:17:11;1.00;;;0.40;;
13981;SDS011;7065;50.880;5.502;2024-03-02T03:19:38;0.55;;;0.50;;
13981;SDS011;7065;50.880;5.502;2024-03-02T03:22:03;1.10;;;0.63;;
13981;SDS011;7065;50.880;5.502;2024-03-02T03:24:29;1.05;;;0.40;;
13981;SDS011;7065;50.880;5.502;2024-03-02T03:26:55;0.45;;;0.45;;
13981;SDS011;7065;50.880;5.502;2024-03-02T03:29:21;0.30;;;0.30;;
13981;SDS011;7065;50.880;5.502;2024-03-02T03:31:47;0.50;;;0.50;;
13981;SDS011;7065;50.880;5.502;2024-03-02T03:34:12;1.15;;;0.40;;
13981;SDS011;7065;50.880;5.502;2024-03-02T03:36:41;0.80;;;0.40;;
13981;SDS011;7065;50.880;5.502;2024-03-02T03:39:07;1.23;;;0.43;;
13981;SDS011;7065;50.880;5.502;2024-03-02T03:41:32;1.08;;;0.50;;
13981;SDS011;7065;50.880;5.502;2024-03-02T03:43:58;1.10;;;0.50;;
13981;SDS011;7065;50.880;5.502;2024-03-02T03:46:24;0.45;;;0.40;;
13981;SDS011;7065;50.880;5.502;2024-03-02T03:48:49;0.85;;;0.40;;
13981;SDS011;7065;50.880;5.502;2024-03-02T03:51:15;1.60;;;0.30;;
13981;SDS011;7065;50.880;5.502;2024-03-02T03:53:41;1.02;;;0.50;;
13981;SDS011;7065;50.880;5.502;2024-03-02T03:56:07;0.90;;;0.60;;
13981;SDS011;7065;50.880;5.502;2024-03-02T03:58:33;1.10;;;0.50;;
13981;SDS011;7065;50.880;5.502;2024-03-02T04:00:58;0.98;;;0.50;;
13981;SDS011;7065;50.880;5.502;2024-03-02T04:03:24;0.63;;;0.47;;
13981;SDS011;7065;50.880;5.502;2024-03-02T04:05:51;0.65;;;0.30;;
13981;SDS011;7065;50.880;5.502;2024-03-02T04:08:16;2.13;;;0.50;;
13981;SDS011;7065;50.880;5.502;2024-03-02T04:10:42;0.43;;;0.32;;
13981;SDS011;7065;50.880;5.502;2024-03-02T04:13:08;1.02;;;0.50;;
13981;SDS011;7065;50.880;5.502;2024-03-02T04:15:34;0.60;;;0.52;;
13981;SDS011;7065;50.880;5.502;2024-03-02T04:18:00;0.57;;;0.40;;
13981;SDS011;7065;50.880;5.502;2024-03-02T04:20:26;0.68;;;0.60;;
13981;SDS011;7065;50.880;5.502;2024-03-02T04:22:52;1.65;;;0.40;;
13981;SDS011;7065;50.880;5.502;2024-03-02T04:25:17;0.95;;;0.50;;
13981;SDS011;7065;50.880;5.502;2024-03-02T04:27:44;2.00;;;0.50;;
13981;SDS011;7065;50.880;5.502;2024-03-02T04:30:10;0.60;;;0.50;;
13981;SDS011;7065;50.880;5.502;2024-03-02T04:32:36;1.88;;;0.50;;
13981;SDS011;7065;50.880;5.502;2024-03-02T04:35:02;0.73;;;0.40;;
13981;SDS011;7065;50.880;5.502;2024-03-02T04:37:28;0.85;;;0.43;;
13981;SDS011;7065;50.880;5.502;2024-03-02T04:39:54;0.50;;;0.47;;
13981;SDS011;7065;50.880;5.502;2024-03-02T04:42:19;1.88;;;0.40;;
13981;SDS011;7065;50.880;5.502;2024-03-02T04:44:45;1.15;;;0.60;;
13981;SDS011;7065;50.880;5.502;2024-03-02T04:47:11;1.45;;;0.52;;
13981;SDS011;7065;50.880;5.502;2024-03-02T04:49:37;0.95;;;0.47;;
13981;SDS011;7065;50.880;5.502;2024-03-02T04:52:03;2.28;;;0.52;;
13981;SDS011;7065;50.880;5.502;2024-03-02T04:54:29;1.38;;;0.65;;
13981;SDS011;7065;50.880;5.502;2024-03-02T04:56:55;1.65;;;0.68;;
13981;SDS011;7065;50.880;5.502;2024-03-02T04:59:20;0.85;;;0.50;;
13981;SDS011;7065;50.880;5.502;2024-03-02T05:01:46;1.08;;;0.60;;
13981;SDS011;7065;50.880;5.502;2024-03-02T05:04:12;1.20;;;0.60;;
13981;SDS011;7065;50.880;5.502;2024-03-02T05:06:38;0.90;;;0.40;;
13981;SDS011;7065;50.880;5.502;2024-03-02T05:09:07;0.98;;;0.70;;
13981;SDS011;7065;50.880;5.502;2024-03-02T05:11:33;1.98;;;0.50;;
13981;SDS011;7065;50.880;5.502;2024-03-02T05:14:02;1.17;;;0.50;;
13981;SDS011;7065;50.880;5.502;2024-03-02T05:16:28;3.30;;;0.60;;
13981;SDS011;7065;50.880;5.502;2024-03-02T05:18:54;0.85;;;0.60;;
13981;SDS011;7065;50.880;5.502;2024-03-02T05:21:20;1.70;;;0.60;;
13981;SDS011;7065;50.880;5.502;2024-03-02T05:23:46;1.45;;;0.70;;
13981;SDS011;7065;50.880;5.502;2024-03-02T05:26:12;1.73;;;0.60;;
13981;SDS011;7065;50.880;5.502;2024-03-02T05:28:38;2.60;;;0.80;;
13981;SDS011;7065;50.880;5.502;2024-03-02T05:31:04;2.33;;;0.70;;
13981;SDS011;7065;50.880;5.502;2024-03-02T05:33:30;2.78;;;0.73;;
13981;SDS011;7065;50.880;5.502;2024-03-02T05:35:58;1.08;;;0.60;;
13981;SDS011;7065;50.880;5.502;2024-03-02T05:38:23;1.40;;;0.60;;
13981;SDS011;7065;50.880;5.502;2024-03-02T05:40:49;3.05;;;0.68;;
13981;SDS011;7065;50.880;5.502;2024-03-02T05:43:15;0.85;;;0.50;;
13981;SDS011;7065;50.880;5.502;2024-03-02T05:45:40;3.35;;;0.60;;
13981;SDS011;7065;50.880;5.502;2024-03-02T05:48:07;2.47;;;0.77;;
13981;SDS011;7065;50.880;5.502;2024-03-02T05:50:33;4.38;;;0.73;;
13981;SDS011;7065;50.880;5.502;2024-03-02T05:52:58;1.48;;;0.63;;
13981;SDS011;7065;50.880;5.502;2024-03-02T05:55:24;0.80;;;0.70;;
13981;SDS011;7065;50.880;5.502;2024-03-02T05:57:50;3.88;;;0.90;;
13981;SDS011;7065;50.880;5.502;2024-03-02T06:00:30;0.95;;;0.50;;
13981;SDS011;7065;50.880;5.502;2024-03-02T06:02:56;1.10;;;0.60;;
13981;SDS011;7065;50.880;5.502;2024-03-02T06:05:22;2.40;;;0.63;;
13981;SDS011;7065;50.880;5.502;2024-03-02T06:07:48;3.35;;;0.70;;
13981;SDS011;7065;50.880;5.502;2024-03-02T06:10:14;3.33;;;0.80;;
13981;SDS011;7065;50.880;5.502;2024-03-02T06:12:39;2.58;;;0.70;;
13981;SDS011;7065;50.880;5.502;2024-03-02T06:15:05;1.02;;;0.68;;
13981;SDS011;7065;50.880;5.502;2024-03-02T06:17:31;1.85;;;0.75;;
13981;SDS011;7065;50.880;5.502;2024-03-02T06:19:57;1.63;;;0.70;;
13981;SDS011;7065;50.880;5.502;2024-03-02T06:22:23;2.90;;;0.80;;
13981;SDS011;7065;50.880;5.502;2024-03-02T06:24:50;1.10;;;0.70;;
13981;SDS011;7065;50.880;5.502;2024-03-02T06:27:16;4.57;;;0.70;;
13981;SDS011;7065;50.880;5.502;2024-03-02T06:29:41;3.75;;;0.77;;
13981;SDS011;7065;50.880;5.502;2024-03-02T06:32:07;2.28;;;0.70;;
13981;SDS011;7065;50.880;5.502;2024-03-02T06:34:33;1.48;;;0.80;;
13981;SDS011;7065;50.880;5.502;2024-03-02T06:36:59;2.03;;;0.63;;
13981;SDS011;7065;50.880;5.502;2024-03-02T06:39:24;3.92;;;0.80;;
13981;SDS011;7065;50.880;5.502;2024-03-02T06:41:50;1.73;;;0.60;;
13981;SDS011;7065;50.880;5.502;2024-03-02T06:44:16;0.90;;;0.52;;
13981;SDS011;7065;50.880;5.502;2024-03-02T06:46:42;1.40;;;0.77;;
13981;SDS011;7065;50.880;5.502;2024-03-02T06:49:08;2.25;;;0.85;;
13981;SDS011;7065;50.880;5.502;2024-03-02T06:51:35;2.75;;;1.00;;
13981;SDS011;7065;50.880;5.502;2024-03-02T06:54:01;1.20;;;0.80;;
13981;SDS011;7065;50.880;5.502;2024-03-02T06:56:27;3.92;;;1.00;;
13981;SDS011;7065;50.880;5.502;2024-03-02T06:58:53;3.60;;;0.73;;
13981;SDS011;7065;50.880;5.502;2024-03-02T07:01:19;3.72;;;0.95;;
13981;SDS011;7065;50.880;5.502;2024-03-02T07:03:47;2.13;;;0.60;;
13981;SDS011;7065;50.880;5.502;2024-03-02T07:06:13;2.88;;;0.77;;
13981;SDS011;7065;50.880;5.502;2024-03-02T07:08:39;1.20;;;0.90;;
13981;SDS011;7065;50.880;5.502;2024-03-02T07:11:05;1.73;;;0.70;;
13981;SDS011;7065;50.880;5.502;2024-03-02T07:13:30;0.80;;;0.60;;
13981;SDS011;7065;50.880;5.502;2024-03-02T07:15:56;1.92;;;0.70;;
13981;SDS011;7065;50.880;5.502;2024-03-02T07:18:27;4.90;;;0.82;;
13981;SDS011;7065;50.880;5.502;2024-03-02T07:20:53;2.85;;;0.90;;
13981;SDS011;7065;50.880;5.502;2024-03-02T07:23:20;2.05;;;0.70;;
13981;SDS011;7065;50.880;5.502;2024-03-02T07:25:49;3.83;;;0.98;;
13981;SDS011;7065;50.880;5.502;2024-03-02T07:28:15;0.90;;;0.60;;
13981;SDS011;7065;50.880;5.502;2024-03-02T07:30:41;2.75;;;0.70;;
13981;SDS011;7065;50.880;5.502;2024-03-02T07:33:07;2.38;;;0.93;;
13981;SDS011;7065;50.880;5.502;2024-03-02T07:35:32;3.70;;;0.77;;
13981;SDS011;7065;50.880;5.502;2024-03-02T07:37:58;1.50;;;0.80;;
13981;SDS011;7065;50.880;5.502;2024-03-02T07:40:24;2.95;;;1.08;;
13981;SDS011;7065;50.880;5.502;2024-03-02T07:42:50;2.55;;;0.85;;
13981;SDS011;7065;50.880;5.502;2024-03-02T07:45:16;2.83;;;0.90;;
13981;SDS011;7065;50.880;5.502;2024-03-02T07:47:41;5.80;;;1.55;;
13981;SDS011;7065;50.880;5.502;2024-03-02T07:50:07;1.35;;;0.63;;
13981;SDS011;7065;50.880;5.502;2024-03-02T07:52:34;2.58;;;0.75;;
13981;SDS011;7065;50.880;5.502;2024-03-02T07:54:59;4.57;;;1.10;;
13981;SDS011;7065;50.880;5.502;2024-03-02T07:57:25;2.58;;;1.02;;
13981;SDS011;7065;50.880;5.502;2024-03-02T07:59:51;1.38;;;0.70;;
13981;SDS011;7065;50.880;5.502;2024-03-02T08:02:17;3.67;;;1.00;;
13981;SDS011;7065;50.880;5.502;2024-03-02T08:04:43;4.00;;;1.08;;
13981;SDS011;7065;50.880;5.502;2024-03-02T08:07:09;3.25;;;1.05;;
13981;SDS011;7065;50.880;5.502;2024-03-02T08:09:35;3.95;;;1.40;;
13981;SDS011;7065;50.880;5.502;2024-03-02T08:12:00;2.67;;;1.02;;
13981;SDS011;7065;50.880;5.502;2024-03-02T08:14:26;2.58;;;0.95;;
13981;SDS011;7065;50.880;5.502;2024-03-02T08:16:51;3.90;;;1.00;;
13981;SDS011;7065;50.880;5.502;2024-03-02T08:19:17;2.67;;;1.15;;
13981;SDS011;7065;50.880;5.502;2024-03-02T08:21:43;2.75;;;0.88;;
13981;SDS011;7065;50.880;5.502;2024-03-02T08:24:09;4.15;;;1.00;;
13981;SDS011;7065;50.880;5.502;2024-03-02T08:26:35;4.78;;;0.98;;
13981;SDS011;7065;50.880;5.502;2024-03-02T08:29:00;2.17;;;1.10;;
13981;SDS011;7065;50.880;5.502;2024-03-02T08:31:28;3.95;;;1.17;;
13981;SDS011;7065;50.880;5.502;2024-03-02T08:33:54;3.25;;;0.90;;
13981;SDS011;7065;50.880;5.502;2024-03-02T08:36:20;2.83;;;0.95;;
13981;SDS011;7065;50.880;5.502;2024-03-02T08:38:46;4.07;;;1.20;;
13981;SDS011;7065;50.880;5.502;2024-03-02T08:41:13;4.13;;;1.08;;
13981;SDS011;7065;50.880;5.502;2024-03-02T08:43:41;2.80;;;0.95;;
13981;SDS011;7065;50.880;5.502;2024-03-02T08:46:08;2.53;;;1.05;;
13981;SDS011;7065;50.880;5.502;2024-03-02T08:48:34;2.28;;;1.02;;
13981;SDS011;7065;50.880;5.502;2024-03-02T08:51:01;3.38;;;1.50;;
13981;SDS011;7065;50.880;5.502;2024-03-02T08:53:29;5.45;;;1.00;;
13981;SDS011;7065;50.880;5.502;2024-03-02T08:55:55;3.92;;;1.00;;
13981;SDS011;7065;50.880;5.502;2024-03-02T08:58:21;3.40;;;1.02;;
13981;SDS011;7065;50.880;5.502;2024-03-02T09:00:46;1.65;;;0.90;;
13981;SDS011;7065;50.880;5.502;2024-03-02T09:03:12;2.90;;;1.00;;
13981;SDS011;7065;50.880;5.502;2024-03-02T09:05:38;5.80;;;1.33;;
13981;SDS011;7065;50.880;5.502;2024-03-02T09:08:04;4.53;;;1.27;;
13981;SDS011;7065;50.880;5.502;2024-03-02T09:10:30;5.38;;;1.20;;
13981;SDS011;7065;50.880;5.502;2024-03-02T09:12:56;4.32;;;1.23;;
13981;SDS011;7065;50.880;5.502;2024-03-02T09:15:21;6.28;;;1.10;;
13981;SDS011;7065;50.880;5.502;2024-03-02T09:17:47;3.17;;;0.90;;
13981;SDS011;7065;50.880;5.502;2024-03-02T09:20:13;4.38;;;1.00;;
13981;SDS011;7065;50.880;5.502;2024-03-02T09:22:39;3.60;;;1.20;;
13981;SDS011;7065;50.880;5.502;2024-03-02T09:25:04;2.25;;;1.10;;
13981;SDS011;7065;50.880;5.502;2024-03-02T09:27:35;4.05;;;1.00;;
13981;SDS011;7065;50.880;5.502;2024-03-02T09:30:02;3.45;;;0.95;;
13981;SDS011;7065;50.880;5.502;2024-03-02T09:32:29;4.18;;;0.82;;
13981;SDS011;7065;50.880;5.502;2024-03-02T09:34:55;4.50;;;1.30;;
13981;SDS011;7065;50.880;5.502;2024-03-02T09:37:23;2.95;;;1.00;;
13981;SDS011;7065;50.880;5.502;2024-03-02T09:39:49;2.38;;;1.20;;
13981;SDS011;7065;50.880;5.502;2024-03-02T09:42:14;4.18;;;1.30;;
13981;SDS011;7065;50.880;5.502;2024-03-02T09:44:41;3.13;;;1.20;;
13981;SDS011;7065;50.880;5.502;2024-03-02T09:47:07;2.92;;;1.08;;
13981;SDS011;7065;50.880;5.502;2024-03-02T09:49:34;2.90;;;1.00;;
13981;SDS011;7065;50.880;5.502;2024-03-02T09:52:00;2.65;;;1.00;;
13981;SDS011;7065;50.880;5.502;2024-03-02T09:54:26;2.15;;;0.82;;
13981;SDS011;7065;50.880;5.502;2024-03-02T09:56:51;6.63;;;1.20;;
13981;SDS011;7065;50.880;5.502;2024-03-02T09:59:17;6.18;;;1.17;;
13981;SDS011;7065;50.880;5.502;2024-03-02T10:02:00;2.53;;;0.80;;
13981;SDS011;7065;50.880;5.502;2024-03-02T10:04:28;2.83;;;0.88;;
13981;SDS011;7065;50.880;5.502;2024-03-02T10:09:43;2.53;;;1.05;;
13981;SDS011;7065;50.880;5.502;2024-03-02T10:12:13;3.45;;;1.00;;
13981;SDS011;7065;50.880;5.502;2024-03-02T10:14:40;4.53;;;1.25;;
13981;SDS011;7065;50.880;5.502;2024-03-02T10:17:10;3.35;;;1.13;;
13981;SDS011;7065;50.880;5.502;2024-03-02T10:19:37;4.35;;;1.10;;
13981;SDS011;7065;50.880;5.502;2024-03-02T10:22:04;2.92;;;0.93;;
13981;SDS011;7065;50.880;5.502;2024-03-02T10:24:38;3.10;;;1.10;;
13981;SDS011;7065;50.880;5.502;2024-03-02T10:27:07;2.92;;;0.90;;
13981;SDS011;7065;50.880;5.502;2024-03-02T10:29:40;4.15;;;1.10;;
13981;SDS011;7065;50.880;5.502;2024-03-02T10:32:09;4.30;;;0.73;;
13981;SDS011;7065;50.880;5.502;2024-03-02T10:34:36;3.92;;;1.23;;
13981;SDS011;7065;50.880;5.502;2024-03-02T10:37:03;3.88;;;1.10;;
13981;SDS011;7065;50.880;5.502;2024-03-02T10:39:30;2.22;;;0.88;;
13981;SDS011;7065;50.880;5.502;2024-03-02T10:41:56;2.20;;;1.33;;
13981;SDS011;7065;50.880;5.502;2024-03-02T10:44:23;4.03;;;1.10;;
13981;SDS011;7065;50.880;5.502;2024-03-02T10:46:50;2.55;;;0.98;;
13981;SDS011;7065;50.880;5.502;2024-03-02T10:49:18;2.38;;;1.02;;
13981;SDS011;7065;50.880;5.502;2024-03-02T10:51:45;2.38;;;0.90;;
13981;SDS011;7065;50.880;5.502;2024-03-02T10:54:11;4.03;;;1.50;;
13981;SDS011;7065;50.880;5.502;2024-03-02T11:01:47;5.55;;;1.70;;
13981;SDS011;7065;50.880;5.502;2024-03-02T11:04:15;4.90;;;1.50;;
13981;SDS011;7065;50.880;5.502;2024-03-02T11:06:48;2.45;;;1.33;;
13981;SDS011;7065;50.880;5.502;2024-03-02T11:09:14;4.10;;;1.08;;
13981;SDS011;7065;50.880;5.502;2024-03-02T11:11:47;8.98;;;1.80;;
13981;SDS011;7065;50.880;5.502;2024-03-02T11:14:21;3.53;;;1.10;;
13981;SDS011;7065;50.880;5.502;2024-03-02T11:16:50;4.97;;;1.45;;
13981;SDS011;7065;50.880;5.502;2024-03-02T11:19:17;2.38;;;1.13;;
13981;SDS011;7065;50.880;5.502;2024-03-02T11:21:43;5.18;;;1.08;;
13981;SDS011;7065;50.880;5.502;2024-03-02T11:24:43;5.05;;;1.33;;
13981;SDS011;7065;50.880;5.502;2024-03-02T11:27:03;2.95;;;1.33;;
13981;SDS011;7065;50.880;5.502;2024-03-02T11:32:06;4.07;;;0.85;;
13981;SDS011;7065;50.880;5.502;2024-03-02T11:34:40;2.15;;;1.00;;
13981;SDS011;7065;50.880;5.502;2024-03-02T11:37:10;3.60;;;1.30;;
13981;SDS011;7065;50.880;5.502;2024-03-02T11:39:37;2.50;;;1.02;;
13981;SDS011;7065;50.880;5.502;2024-03-02T11:42:05;5.80;;;1.55;;
13981;SDS011;7065;50.880;5.502;2024-03-02T11:44:35;3.38;;;1.05;;
13981;SDS011;7065;50.880;5.502;2024-03-02T11:47:02;3.38;;;1.50;;
13981;SDS011;7065;50.880;5.502;2024-03-02T11:52:15;4.63;;;1.00;;
13981;SDS011;7065;50.880;5.502;2024-03-02T11:54:43;2.92;;;1.10;;
13981;SDS011;7065;50.880;5.502;2024-03-02T11:57:16;5.38;;;1.05;;
13981;SDS011;7065;50.880;5.502;2024-03-02T11:59:44;2.47;;;1.05;;
13981;SDS011;7065;50.880;5.502;2024-03-02T12:02:14;2.38;;;1.27;;
13981;SDS011;7065;50.880;5.502;2024-03-02T12:04:44;1.50;;;1.10;;
13981;SDS011;7065;50.880;5.502;2024-03-02T12:07:11;3.28;;;1.10;;
13981;SDS011;7065;50.880;5.502;2024-03-02T12:09:37;5.35;;;1.30;;
13981;SDS011;7065;50.880;5.502;2024-03-02T12:12:07;4.32;;;2.00;;
13981;SDS011;7065;50.880;5.502;2024-03-02T12:14:35;5.90;;;1.45;;
13981;SDS011;7065;50.880;5.502;2024-03-02T12:17:02;4.07;;;1.30;;
13981;SDS011;7065;50.880;5.502;2024-03-02T12:19:29;4.28;;;1.33;;
13981;SDS011;7065;50.880;5.502;2024-03-02T12:21:58;2.30;;;1.20;;
13981;SDS011;7065;50.880;5.502;2024-03-02T12:24:29;4.53;;;1.02;;
13981;SDS011;7065;50.880;5.502;2024-03-02T12:26:54;2.17;;;1.10;;
13981;SDS011;7065;50.880;5.502;2024-03-02T12:29:21;2.50;;;0.90;;
13981;SDS011;7065;50.880;5.502;2024-03-02T12:31:48;3.05;;;0.82;;
13981;SDS011;7065;50.880;5.502;2024-03-02T12:34:14;3.25;;;1.05;;
13981;SDS011;7065;50.880;5.502;2024-03-02T12:36:41;1.75;;;0.98;;
13981;SDS011;7065;50.880;5.502;2024-03-02T12:39:08;3.13;;;1.15;;
13981;SDS011;7065;50.880;5.502;2024-03-02T12:41:38;3.40;;;1.30;;
13981;SDS011;7065;50.880;5.502;2024-03-02T12:44:04;2.60;;;1.10;;
13981;SDS011;7065;50.880;5.502;2024-03-02T12:46:34;1.70;;;0.90;;
13981;SDS011;7065;50.880;5.502;2024-03-02T12:49:10;3.25;;;1.00;;
13981;SDS011;7065;50.880;5.502;2024-03-02T12:51:40;1.50;;;1.05;;
13981;SDS011;7065;50.880;5.502;2024-03-02T12:54:07;3.33;;;0.80;;
13981;SDS011;7065;50.880;5.502;2024-03-02T12:56:34;1.40;;;0.82;;
13981;SDS011;7065;50.880;5.502;2024-03-02T12:59:00;3.25;;;0.95;;
13981;SDS011;7065;50.880;5.502;2024-03-02T13:01:26;3.08;;;0.88;;
13981;SDS011;7065;50.880;5.502;2024-03-02T13:03:53;2.72;;;0.90;;
13981;SDS011;7065;50.880;5.502;2024-03-02T13:06:22;1.88;;;0.75;;
13981;SDS011;7065;50.880;5.502;2024-03-02T13:08:49;2.20;;;1.00;;
13981;SDS011;7065;50.880;5.502;2024-03-02T13:11:15;1.90;;;0.75;;
13981;SDS011;7065;50.880;5.502;2024-03-02T13:13:42;3.45;;;1.27;;
13981;SDS011;7065;50.880;5.502;2024-03-02T13:16:11;3.03;;;1.00;;
13981;SDS011;7065;50.880;5.502;2024-03-02T13:18:41;1.60;;;0.95;;
13981;SDS011;7065;50.880;5.502;2024-03-02T13:21:07;2.03;;;0.70;;
13981;SDS011;7065;50.880;5.502;2024-03-02T13:23:33;2.65;;;0.98;;
13981;SDS011;7065;50.880;5.502;2024-03-02T13:26:00;1.40;;;0.88;;
13981;SDS011;7065;50.880;5.502;2024-03-02T13:28:26;1.88;;;0.90;;
13981;SDS011;7065;50.880;5.502;2024-03-02T13:30:52;1.23;;;0.77;;
13981;SDS011;7065;50.880;5.502;2024-03-02T13:33:18;1.77;;;0.90;;
13981;SDS011;7065;50.880;5.502;2024-03-02T13:35:47;2.30;;;0.93;;
13981;SDS011;7065;50.880;5.502;2024-03-02T13:38:15;1.35;;;0.77;;
13981;SDS011;7065;50.880;5.502;2024-03-02T13:40:44;6.50;;;1.30;;
13981;SDS011;7065;50.880;5.502;2024-03-02T13:43:10;1.17;;;0.85;;
13981;SDS011;7065;50.880;5.502;2024-03-02T13:45:37;3.72;;;1.00;;
13981;SDS011;7065;50.880;5.502;2024-03-02T13:48:03;0.85;;;0.70;;
13981;SDS011;7065;50.880;5.502;2024-03-02T13:50:29;2.20;;;1.00;;
13981;SDS011;7065;50.880;5.502;2024-03-02T13:52:55;1.52;;;0.88;;
13981;SDS011;7065;50.880;5.502;2024-03-02T13:55:21;2.05;;;1.02;;
13981;SDS011;7065;50.880;5.502;2024-03-02T13:57:47;0.75;;;0.60;;
13981;SDS011;7065;50.880;5.502;2024-03-02T14:00:15;1.10;;;0.95;;
13981;SDS011;7065;50.880;5.502;2024-03-02T14:02:42;1.33;;;0.90;;
13981;SDS011;7065;50.880;5.502;2024-03-02T14:05:08;3.03;;;0.70;;
13981;SDS011;7065;50.880;5.502;2024-03-02T14:07:39;3.25;;;0.80;;
13981;SDS011;7065;50.880;5.502;2024-03-02T14:10:06;2.92;;;1.05;;
13981;SDS011;7065;50.880;5.502;2024-03-02T14:12:32;1.17;;;0.60;;
13981;SDS011;7065;50.880;5.502;2024-03-02T14:14:57;1.10;;;0.90;;
13981;SDS011;7065;50.880;5.502;2024-03-02T14:17:26;1.15;;;0.70;;
13981;SDS011;7065;50.880;5.502;2024-03-02T14:19:51;3.50;;;1.10;;
13981;SDS011;7065;50.880;5.502;2024-03-02T14:22:18;2.00;;;1.00;;
13981;SDS011;7065;50.880;5.502;2024-03-02T14:24:44;1.08;;;0.75;;
13981;SDS011;7065;50.880;5.502;2024-03-02T14:27:11;1.85;;;1.10;;
13981;SDS011;7065;50.880;5.502;2024-03-02T14:29:37;1.60;;;0.90;;
13981;SDS011;7065;50.880;5.502;2024-03-02T14:32:05;1.10;;;0.80;;
13981;SDS011;7065;50.880;5.502;2024-03-02T14:34:31;2.08;;;1.00;;
13981;SDS011;7065;50.880;5.502;2024-03-02T14:36:56;1.73;;;1.00;;
13981;SDS011;7065;50.880;5.502;2024-03-02T14:39:22;1.65;;;0.88;;
13981;SDS011;7065;50.880;5.502;2024-03-02T14:41:48;1.38;;;0.82;;
13981;SDS011;7065;50.880;5.502;2024-03-02T14:44:14;2.17;;;0.90;;
13981;SDS011;7065;50.880;5.502;2024-03-02T14:46:40;3.03;;;1.00;;
13981;SDS011;7065;50.880;5.502;2024-03-02T14:49:07;0.98;;;0.80;;
13981;SDS011;7065;50.880;5.502;2024-03-02T14:51:33;2.78;;;0.73;;
13981;SDS011;7065;50.880;5.502;2024-03-02T14:53:58;0.98;;;0.80;;
13981;SDS011;7065;50.880;5.502;2024-03-02T14:56:24;2.58;;;0.95;;
13981;SDS011;7065;50.880;5.502;2024-03-02T14:58:49;1.42;;;1.00;;
13981;SDS011;7065;50.880;5.502;2024-03-02T15:01:16;0.75;;;0.73;;
13981;SDS011;7065;50.880;5.502;2024-03-02T15:03:42;2.50;;;1.60;;
13981;SDS011;7065;50.880;5.502;2024-03-02T15:06:08;2.75;;;2.55;;
13981;SDS011;7065;50.880;5.502;2024-03-02T15:08:34;2.22;;;2.03;;
13981;SDS011;7065;50.880;5.502;2024-03-02T15:11:00;3.72;;;2.90;;